createdAt,value
2019-03-30T00:08:09.842Z,9.40
2019-03-30T00:13:14.154Z,9.40
2019-03-30T00:23:24.774Z,9.20
2019-03-30T00:28:29.002Z,9.30
2019-03-30T00:33:35.487Z,9.20
2019-03-30T00:43:43.840Z,9.20
2019-03-30T00:48:48.585Z,9.20
2019-03-30T00:58:58.224Z,9.20
2019-03-30T01:09:08.962Z,9.20
2019-03-30T01:14:13.511Z,9.20
2019-03-30T01:19:18.622Z,9.20
2019-03-30T01:24:23.622Z,9.30
2019-03-30T01:29:27.943Z,9.10
2019-03-30T01:34:36.432Z,9.10
2019-03-30T01:39:40.617Z,9.10
2019-03-30T01:44:45.162Z,9.10
2019-03-30T01:49:49.361Z,9.00
2019-03-30T01:54:53.834Z,9.00
2019-03-30T01:59:58.009Z,9.00
2019-03-30T02:05:02.220Z,8.90
2019-03-30T02:10:11.388Z,8.90
2019-03-30T02:15:16.054Z,8.90
2019-03-30T02:20:37.416Z,9.00
2019-03-30T02:25:41.944Z,8.90
2019-03-30T02:30:47.833Z,8.90
2019-03-30T02:35:58.758Z,8.90
2019-03-30T02:41:03.355Z,10.30
2019-03-30T02:46:07.594Z,8.80
2019-03-30T02:51:12.614Z,8.80
2019-03-30T02:56:17.199Z,8.80
2019-03-30T03:01:22.197Z,8.70
2019-03-30T03:11:31.000Z,8.70
2019-03-30T03:16:35.823Z,8.80
2019-03-30T03:21:41.713Z,8.80
2019-03-30T03:26:46.505Z,8.80
2019-03-30T03:31:50.950Z,8.70
2019-03-30T03:36:55.436Z,8.70
2019-03-30T03:42:00.874Z,8.60
2019-03-30T03:47:05.417Z,8.60
2019-03-30T03:52:11.208Z,8.60
2019-03-30T03:57:20.232Z,8.60
2019-03-30T04:02:29.902Z,8.60
2019-03-30T04:07:39.650Z,8.60
2019-03-30T04:22:55.124Z,8.70
2019-03-30T04:33:05.207Z,8.80
2019-03-30T04:38:09.447Z,8.80
2019-03-30T04:43:13.681Z,8.80
2019-03-30T04:48:20.141Z,8.80
2019-03-30T04:53:24.294Z,8.90
2019-03-30T04:58:28.880Z,8.90
2019-03-30T05:03:33.024Z,9.00
2019-03-30T05:08:37.377Z,9.10
2019-03-30T05:13:41.551Z,9.20
2019-03-30T05:18:47.257Z,9.30
2019-03-30T05:23:51.385Z,9.40
2019-03-30T05:28:55.540Z,9.50
2019-03-30T05:34:00.063Z,9.50
2019-03-30T05:39:05.064Z,9.60
2019-03-30T05:44:09.177Z,9.70
2019-03-30T05:49:13.581Z,9.70
2019-03-30T05:54:17.692Z,9.80
2019-03-30T05:59:22.575Z,9.80
2019-03-30T06:04:27.794Z,9.80
2019-03-30T06:09:32.230Z,9.50
2019-03-30T06:14:36.535Z,9.60
2019-03-30T06:19:41.981Z,9.80
2019-03-30T06:24:46.960Z,10.00
2019-03-30T06:30:15.503Z,10.00
2019-03-30T06:35:19.808Z,10.00
2019-03-30T06:40:24.316Z,10.00
2019-03-30T06:45:29.392Z,9.90
2019-03-30T06:50:33.617Z,9.90
2019-03-30T06:55:38.242Z,10.00
2019-03-30T07:00:42.585Z,9.80
2019-03-30T07:05:46.788Z,10.00
2019-03-30T07:10:50.902Z,9.70
2019-03-30T07:15:58.269Z,9.90
2019-03-30T07:21:02.937Z,9.90
2019-03-30T07:26:07.439Z,10.20
2019-03-30T07:31:11.559Z,10.30
2019-03-30T07:36:15.681Z,10.30
2019-03-30T07:41:20.600Z,10.40
2019-03-30T07:46:24.719Z,10.50
2019-03-30T07:51:33.263Z,10.40
2019-03-30T07:56:36.262Z,10.60
2019-03-30T08:01:41.326Z,10.90
2019-03-30T08:06:45.943Z,11.00
2019-03-30T08:11:50.150Z,11.30
2019-03-30T08:16:54.274Z,11.40
2019-03-30T08:21:58.642Z,11.60
2019-03-30T08:27:03.413Z,12.00
2019-03-30T08:32:09.418Z,11.90
2019-03-30T08:37:13.901Z,12.00
2019-03-30T08:42:19.008Z,11.70
2019-03-30T08:47:23.504Z,11.80
2019-03-30T08:52:27.596Z,12.00
2019-03-30T08:57:32.478Z,12.10
2019-03-30T09:02:36.627Z,12.50
2019-03-30T09:07:40.902Z,12.60
2019-03-30T09:12:45.913Z,12.90
2019-03-30T09:17:50.568Z,12.80
2019-03-30T09:22:54.747Z,13.10
2019-03-30T09:27:59.704Z,13.30
2019-03-30T09:33:03.948Z,14.00
2019-03-30T09:38:08.306Z,14.80
2019-03-30T09:43:13.313Z,14.90
2019-03-30T09:48:18.649Z,15.60
2019-03-30T09:53:22.790Z,15.90
2019-03-30T09:58:26.949Z,15.60
2019-03-30T10:03:31.089Z,15.70
2019-03-30T10:08:36.438Z,15.60
2019-03-30T10:13:41.257Z,15.20
2019-03-30T10:18:47.110Z,15.10
2019-03-30T10:23:51.253Z,15.10
2019-03-30T10:28:55.793Z,14.90
2019-03-30T10:34:00.950Z,15.00
2019-03-30T10:39:07.528Z,14.90
2019-03-30T10:44:13.400Z,14.70
2019-03-30T10:49:19.159Z,14.80
2019-03-30T10:54:23.374Z,14.60
2019-03-30T10:59:27.815Z,14.30
2019-03-30T11:04:31.993Z,14.30
2019-03-30T11:09:38.803Z,14.10
2019-03-30T11:14:43.010Z,14.10
2019-03-30T11:19:48.442Z,14.10
2019-03-30T11:25:06.273Z,14.20
2019-03-30T11:29:58.740Z,14.60
2019-03-30T11:35:03.014Z,14.80
2019-03-30T11:40:07.394Z,15.00
2019-03-30T11:45:12.858Z,15.00
2019-03-30T11:50:16.994Z,14.80
2019-03-30T11:55:22.445Z,14.40
2019-03-30T12:00:27.116Z,14.70
2019-03-30T12:05:31.283Z,15.00
2019-03-30T12:10:36.916Z,15.30
2019-03-30T12:15:42.128Z,15.60
2019-03-30T12:20:58.772Z,15.70
2019-03-30T12:26:03.893Z,13.50
2019-03-30T12:31:08.097Z,16.60
2019-03-30T12:36:12.373Z,16.90
2019-03-30T12:41:16.542Z,17.00
2019-03-30T12:46:20.662Z,17.20
2019-03-30T12:51:24.978Z,17.30
2019-03-30T12:56:29.119Z,17.40
2019-03-30T13:01:33.274Z,17.60
2019-03-30T13:06:38.666Z,17.50
2019-03-30T13:11:44.008Z,17.60
2019-03-30T13:16:48.156Z,17.90
2019-03-30T13:21:53.109Z,17.80
2019-03-30T13:26:58.888Z,18.00
2019-03-30T13:32:03.033Z,18.30
2019-03-30T13:37:18.211Z,18.30
2019-03-30T13:42:24.048Z,18.10
2019-03-30T13:47:28.598Z,18.40
2019-03-30T13:52:33.644Z,18.60
2019-03-30T13:57:37.841Z,18.90
2019-03-30T14:02:44.072Z,19.40
2019-03-30T14:07:49.730Z,19.50
2019-03-30T14:12:53.870Z,19.80
2019-03-30T14:17:58.324Z,19.80
2019-03-30T14:23:02.462Z,19.90
2019-03-30T14:28:06.605Z,20.10
2019-03-30T14:33:10.716Z,20.20
2019-03-30T14:38:15.719Z,20.30
2019-03-30T14:43:19.860Z,20.40
2019-03-30T14:48:24.054Z,20.70
2019-03-30T14:53:28.456Z,20.80
2019-03-30T14:58:32.626Z,20.80
2019-03-30T15:03:36.957Z,21.00
2019-03-30T15:08:41.558Z,21.50
2019-03-30T15:13:45.691Z,23.30
2019-03-30T15:18:50.308Z,25.30
2019-03-30T15:23:55.990Z,26.60
2019-03-30T15:29:00.107Z,27.90
2019-03-30T15:34:03.628Z,26.30
2019-03-30T15:39:08.991Z,28.50
2019-03-30T15:44:13.466Z,28.40
2019-03-30T15:49:17.761Z,27.00
2019-03-30T15:54:21.944Z,26.70
2019-03-30T15:59:26.149Z,28.40
2019-03-30T16:04:30.412Z,27.90
2019-03-30T16:09:34.949Z,30.20
2019-03-30T16:14:39.052Z,31.90
2019-03-30T16:19:44.398Z,31.40
2019-03-30T16:24:49.450Z,29.60
2019-03-30T16:29:58.478Z,28.60
2019-03-30T16:35:01.507Z,28.40
2019-03-30T16:40:06.205Z,27.10
2019-03-30T16:45:11.319Z,25.60
2019-03-30T16:50:16.324Z,22.90
2019-03-30T16:55:22.390Z,20.90
2019-03-30T17:00:32.681Z,19.30
2019-03-30T17:05:36.895Z,18.00
2019-03-30T17:10:41.120Z,17.10
2019-03-30T17:15:49.360Z,16.30
2019-03-30T17:20:58.449Z,15.50
2019-03-30T17:26:02.960Z,14.90
2019-03-30T17:31:07.724Z,14.40
2019-03-30T17:36:11.856Z,14.10
2019-03-30T17:41:17.535Z,13.70
2019-03-30T17:46:23.899Z,13.40
2019-03-30T17:51:29.359Z,13.10
2019-03-30T17:56:33.690Z,12.90
2019-03-30T18:01:38.180Z,12.70
2019-03-30T18:06:43.120Z,12.60
2019-03-30T18:11:50.784Z,12.40
2019-03-30T18:16:55.238Z,12.20
2019-03-30T18:21:59.442Z,12.10
2019-03-30T18:27:05.451Z,11.90
2019-03-30T18:32:11.607Z,11.80
2019-03-30T18:37:18.043Z,11.70
2019-03-30T18:42:22.457Z,11.60
2019-03-30T18:47:26.954Z,11.50
2019-03-30T18:52:32.028Z,11.30
2019-03-30T18:57:39.542Z,11.10
2019-03-30T19:02:43.735Z,11.00
2019-03-30T19:07:47.934Z,11.10
2019-03-30T19:12:52.181Z,11.00
2019-03-30T19:17:56.745Z,11.00
2019-03-30T19:23:00.939Z,11.00
2019-03-30T19:28:22.438Z,10.90
2019-03-30T19:33:28.714Z,11.70
2019-03-30T19:38:33.587Z,10.70
2019-03-30T19:43:37.731Z,10.70
2019-03-30T19:48:44.086Z,10.60
2019-03-30T19:53:48.272Z,10.40
2019-03-30T19:58:54.519Z,10.50
2019-03-30T20:04:00.097Z,10.30
2019-03-30T20:09:08.401Z,10.20
2019-03-30T20:14:12.976Z,10.20
2019-03-30T20:19:17.159Z,10.20
2019-03-30T20:24:21.622Z,10.00
2019-03-30T20:29:26.578Z,9.90
2019-03-30T20:34:30.782Z,9.80
2019-03-30T20:39:38.480Z,9.70
2019-03-30T20:44:43.624Z,9.50
2019-03-30T20:49:49.362Z,7.30
2019-03-30T20:56:18.246Z,9.30
2019-03-30T21:01:22.770Z,5.90
2019-03-30T21:06:27.689Z,5.70
2019-03-30T21:11:31.923Z,6.00
2019-03-30T21:16:36.852Z,9.10
2019-03-30T21:21:43.672Z,6.20
2019-03-30T21:26:47.809Z,9.00
2019-03-30T21:31:53.041Z,7.90
2019-03-30T21:36:57.925Z,6.80
2019-03-30T21:42:02.927Z,7.00
2019-03-30T21:47:08.077Z,6.80
2019-03-30T21:52:14.245Z,8.80
2019-03-30T21:57:19.554Z,8.70
2019-03-30T22:02:23.770Z,8.10
2019-03-30T22:07:29.166Z,8.50
2019-03-30T22:12:34.587Z,8.50
2019-03-30T22:17:38.766Z,8.40
2019-03-30T22:22:43.856Z,8.40
2019-03-30T22:27:48.780Z,11.20
2019-03-30T22:32:52.995Z,8.30
2019-03-30T22:37:57.738Z,8.20
2019-03-30T22:43:02.039Z,8.20
2019-03-30T22:48:06.189Z,8.10
2019-03-30T22:53:10.650Z,8.30
2019-03-30T22:58:14.842Z,8.10
2019-03-30T23:03:22.815Z,6.10
2019-03-30T23:08:27.878Z,8.10
2019-03-30T23:13:32.646Z,6.90
2019-03-30T23:18:39.001Z,8.10
2019-03-30T23:23:44.436Z,8.10
2019-03-30T23:28:49.372Z,8.00
2019-03-30T23:33:54.899Z,4.50
2019-03-30T23:39:00.213Z,8.00
2019-03-30T23:44:04.724Z,8.00
2019-03-30T23:49:09.094Z,8.10
2019-03-30T23:54:15.648Z,8.10
2019-03-30T23:59:20.996Z,5.10
